createdAt,value
2018-10-17T00:00:18.886Z,41.88
2018-10-17T00:02:47.456Z,39.23
2018-10-17T00:05:16.027Z,35.92
2018-10-17T00:07:44.597Z,32.58
2018-10-17T00:10:13.285Z,36.53
2018-10-17T00:12:42.191Z,37.23
2018-10-17T00:15:10.996Z,34.05
2018-10-17T00:17:39.557Z,29.72
2018-10-17T00:20:09.321Z,35.50
2018-10-17T00:22:37.871Z,27.65
2018-10-17T00:25:06.803Z,29.75
2018-10-17T00:27:35.340Z,34.58
2018-10-17T00:30:04.060Z,39.20
2018-10-17T00:32:32.616Z,34.73
2018-10-17T00:35:01.194Z,29.72
2018-10-17T00:37:29.687Z,34.23
2018-10-17T00:39:58.219Z,46.95
2018-10-17T00:42:26.753Z,40.38
2018-10-17T00:44:55.293Z,36.20
2018-10-17T00:47:23.859Z,45.58
2018-10-17T00:49:52.512Z,35.60
2018-10-17T00:52:21.079Z,29.52
2018-10-17T00:54:49.631Z,30.65
2018-10-17T00:57:18.178Z,34.03
2018-10-17T00:59:46.733Z,33.53
2018-10-17T01:02:15.279Z,36.17
2018-10-17T01:04:43.818Z,34.88
2018-10-17T01:07:12.456Z,32.50
2018-10-17T01:09:41.056Z,25.95
2018-10-17T01:12:09.604Z,33.85
2018-10-17T01:14:38.165Z,33.55
2018-10-17T01:17:06.784Z,35.52
2018-10-17T01:19:35.360Z,35.15
2018-10-17T01:22:03.913Z,30.65
2018-10-17T01:24:32.448Z,31.12
2018-10-17T01:27:00.977Z,39.08
2018-10-17T01:29:29.568Z,28.60
2018-10-17T01:31:58.105Z,31.15
2018-10-17T01:34:26.630Z,38.00
2018-10-17T01:36:55.226Z,35.38
2018-10-17T01:39:23.745Z,31.73
2018-10-17T01:41:52.311Z,39.15
2018-10-17T01:44:20.876Z,31.52
2018-10-17T01:46:49.432Z,38.95
2018-10-17T01:49:18.023Z,38.58
2018-10-17T01:51:46.562Z,30.12
2018-10-17T01:54:15.098Z,48.15
2018-10-17T01:56:43.646Z,30.48
2018-10-17T01:59:12.237Z,31.90
2018-10-17T02:01:40.761Z,29.80
2018-10-17T02:04:09.358Z,28.32
2018-10-17T02:06:37.952Z,28.00
2018-10-17T02:09:08.429Z,31.42
2018-10-17T02:11:37.477Z,33.13
2018-10-17T02:14:06.073Z,30.52
2018-10-17T02:16:34.660Z,37.55
2018-10-17T02:19:03.253Z,28.75
2018-10-17T02:21:31.832Z,26.62
2018-10-17T02:24:00.387Z,28.65
2018-10-17T02:26:29.028Z,31.48
2018-10-17T02:28:57.634Z,31.87
2018-10-17T02:31:26.150Z,32.50
2018-10-17T02:33:54.731Z,31.68
2018-10-17T02:36:23.301Z,33.58
2018-10-17T02:38:51.848Z,30.80
2018-10-17T02:41:20.619Z,33.25
2018-10-17T02:43:49.159Z,30.40
2018-10-17T02:46:17.703Z,29.67
2018-10-17T02:48:46.321Z,25.85
2018-10-17T02:51:14.901Z,30.82
2018-10-17T02:53:43.459Z,30.55
2018-10-17T02:56:11.991Z,27.62
2018-10-17T02:58:40.551Z,28.75
2018-10-17T03:01:09.144Z,29.55
2018-10-17T03:03:37.727Z,30.52
2018-10-17T03:06:06.323Z,27.98
2018-10-17T03:08:34.861Z,28.27
2018-10-17T03:11:03.424Z,35.85
2018-10-17T03:13:31.976Z,29.85
2018-10-17T03:16:00.523Z,28.23
2018-10-17T03:18:29.039Z,28.20
2018-10-17T03:20:57.617Z,23.85
2018-10-17T03:23:26.146Z,27.67
2018-10-17T03:25:54.692Z,30.95
2018-10-17T03:28:23.212Z,32.80
2018-10-17T03:30:51.793Z,28.23
2018-10-17T03:33:20.311Z,23.18
2018-10-17T03:35:48.885Z,29.70
2018-10-17T03:38:17.732Z,28.57
2018-10-17T03:40:46.302Z,28.05
2018-10-17T03:43:14.944Z,26.05
2018-10-17T03:45:43.455Z,31.85
2018-10-17T03:48:12.002Z,27.55
2018-10-17T03:50:40.568Z,27.00
2018-10-17T03:53:09.196Z,26.82
2018-10-17T03:55:37.667Z,28.52
2018-10-17T03:58:06.274Z,23.57
2018-10-17T04:00:34.829Z,31.15
2018-10-17T04:03:03.456Z,25.20
2018-10-17T04:05:31.933Z,27.65
2018-10-17T04:08:00.473Z,28.57
2018-10-17T04:10:29.012Z,28.83
2018-10-17T04:12:57.617Z,33.23
2018-10-17T04:15:26.109Z,26.73
2018-10-17T04:17:54.665Z,29.42
2018-10-17T04:20:23.189Z,33.92
2018-10-17T04:22:56.220Z,64.53
2018-10-17T04:25:25.068Z,61.08
2018-10-17T04:27:54.721Z,46.90
2018-10-17T04:30:23.387Z,45.58
2018-10-17T04:32:51.959Z,45.03
2018-10-17T04:35:20.595Z,42.10
2018-10-17T04:37:49.161Z,38.53
2018-10-17T04:40:17.719Z,42.45
2018-10-17T04:42:46.284Z,40.67
2018-10-17T04:45:14.827Z,39.92
2018-10-17T04:47:43.429Z,45.50
2018-10-17T04:50:12.175Z,39.00
2018-10-17T04:52:41.193Z,56.95
2018-10-17T04:55:12.001Z,66.97
2018-10-17T04:57:40.708Z,41.80
2018-10-17T05:00:11.656Z,39.63
2018-10-17T05:02:41.286Z,36.83
2018-10-17T05:05:09.887Z,28.42
2018-10-17T05:07:38.513Z,35.52
2018-10-17T05:10:07.051Z,36.85
2018-10-17T05:12:35.574Z,37.95
2018-10-17T05:15:04.244Z,34.67
2018-10-17T05:17:32.778Z,30.43
2018-10-17T05:20:01.365Z,24.65
2018-10-17T05:22:29.928Z,34.92
2018-10-17T05:24:58.491Z,32.73
2018-10-17T05:27:27.045Z,29.02
2018-10-17T05:29:55.662Z,29.50
2018-10-17T05:32:24.158Z,37.03
2018-10-17T05:34:52.725Z,30.20
2018-10-17T05:37:21.320Z,36.28
2018-10-17T05:39:49.851Z,39.75
2018-10-17T05:42:18.404Z,53.13
2018-10-17T05:44:46.934Z,36.25
2018-10-17T05:47:15.524Z,35.55
2018-10-17T05:49:44.024Z,40.58
2018-10-17T05:52:12.602Z,59.70
2018-10-17T05:54:41.215Z,52.33
2018-10-17T05:57:09.742Z,52.30
2018-10-17T05:59:38.305Z,54.00
2018-10-17T06:02:17.160Z,54.95
2018-10-17T06:04:45.607Z,52.38
2018-10-17T06:07:14.235Z,46.20
2018-10-17T06:09:42.705Z,44.88
2018-10-17T06:12:11.245Z,37.75
2018-10-17T06:14:39.779Z,28.60
2018-10-17T06:17:08.407Z,28.27
2018-10-17T06:19:37.040Z,38.30
2018-10-17T06:22:05.668Z,27.52
2018-10-17T06:24:34.202Z,32.38
2018-10-17T06:27:02.729Z,32.70
2018-10-17T06:29:31.364Z,35.20
2018-10-17T06:31:59.924Z,44.50
2018-10-17T06:34:28.547Z,36.77
2018-10-17T06:36:57.190Z,44.67
2018-10-17T06:39:25.751Z,27.98
2018-10-17T06:41:54.285Z,30.32
2018-10-17T06:44:22.829Z,32.00
2018-10-17T06:46:51.435Z,38.30
2018-10-17T06:49:20.000Z,27.50
2018-10-17T06:51:48.569Z,29.37
2018-10-17T06:54:17.151Z,29.95
2018-10-17T06:56:45.689Z,25.97
2018-10-17T06:59:14.312Z,29.37
2018-10-17T07:01:42.868Z,23.90
2018-10-17T07:04:11.405Z,31.07
2018-10-17T07:06:39.993Z,22.98
2018-10-17T07:09:10.026Z,26.23
2018-10-17T07:11:38.961Z,28.55
2018-10-17T07:14:07.595Z,25.77
2018-10-17T07:16:36.191Z,35.65
2018-10-17T07:19:04.940Z,25.15
2018-10-17T07:21:33.537Z,26.93
2018-10-17T07:24:02.142Z,32.63
2018-10-17T07:26:30.865Z,25.08
2018-10-17T07:28:59.529Z,24.95
2018-10-17T07:31:28.247Z,22.05
2018-10-17T07:33:56.873Z,37.60
2018-10-17T07:36:25.490Z,64.82
2018-10-17T07:38:54.095Z,44.35
2018-10-17T07:41:22.671Z,25.82
2018-10-17T07:43:51.253Z,27.37
2018-10-17T07:46:19.843Z,23.70
2018-10-17T07:48:48.384Z,25.37
2018-10-17T07:51:17.035Z,34.03
2018-10-17T07:53:45.666Z,37.30
2018-10-17T07:56:14.222Z,25.10
2018-10-17T07:58:42.909Z,30.02
2018-10-17T08:01:11.540Z,34.67
2018-10-17T08:03:40.098Z,29.92
2018-10-17T08:06:08.795Z,27.58
2018-10-17T08:08:37.458Z,28.30
2018-10-17T08:11:06.142Z,36.17
2018-10-17T08:13:34.759Z,35.10
2018-10-17T08:16:03.424Z,28.60
2018-10-17T08:18:32.004Z,24.85
2018-10-17T08:21:00.689Z,25.20
2018-10-17T08:23:29.283Z,30.70
2018-10-17T08:25:57.952Z,36.38
2018-10-17T08:28:26.932Z,31.02
2018-10-17T08:30:55.847Z,28.98
2018-10-17T08:33:24.771Z,30.37
2018-10-17T08:35:53.665Z,30.90
2018-10-17T08:38:22.512Z,31.85
2018-10-17T08:40:51.134Z,29.65
2018-10-17T08:43:19.728Z,30.27
2018-10-17T08:45:48.337Z,37.17
2018-10-17T08:48:16.866Z,23.30
2018-10-17T08:50:45.538Z,34.15
2018-10-17T08:53:14.055Z,29.10
2018-10-17T08:55:42.591Z,28.23
2018-10-17T08:58:11.133Z,34.70
2018-10-17T09:00:39.687Z,28.65
2018-10-17T09:03:08.211Z,39.15
2018-10-17T09:05:37.675Z,28.55
2018-10-17T09:08:06.671Z,31.85
2018-10-17T09:10:35.220Z,29.27
2018-10-17T09:13:03.932Z,30.15
2018-10-17T09:15:32.533Z,30.37
2018-10-17T09:18:01.245Z,29.87
2018-10-17T09:20:30.008Z,37.13
2018-10-17T09:22:58.520Z,30.10
2018-10-17T09:25:27.119Z,27.60
2018-10-17T09:27:55.825Z,34.30
2018-10-17T09:30:24.617Z,28.30
2018-10-17T09:32:53.232Z,27.87
2018-10-17T09:35:21.943Z,30.15
2018-10-17T09:37:50.458Z,30.32
2018-10-17T09:40:19.186Z,42.13
2018-10-17T09:42:47.794Z,27.85
2018-10-17T09:45:16.396Z,31.60
2018-10-17T09:47:45.073Z,31.37
2018-10-17T09:50:13.700Z,32.75
2018-10-17T09:52:42.343Z,30.75
2018-10-17T09:55:10.934Z,32.30
2018-10-17T09:57:39.551Z,34.15
2018-10-17T10:00:13.648Z,32.33
2018-10-17T10:02:42.460Z,31.42
2018-10-17T10:05:11.011Z,41.88
2018-10-17T10:07:39.585Z,34.08
2018-10-17T10:10:08.306Z,33.63
2018-10-17T10:12:36.848Z,32.30
2018-10-17T10:15:05.448Z,32.25
2018-10-17T10:17:34.149Z,29.25
2018-10-17T10:20:02.915Z,42.65
2018-10-17T10:22:31.424Z,29.82
2018-10-17T10:25:00.064Z,36.45
2018-10-17T10:27:28.881Z,34.38
2018-10-17T10:29:57.556Z,34.48
2018-10-17T10:32:26.035Z,29.40
2018-10-17T10:34:57.737Z,31.60
2018-10-17T10:37:26.316Z,27.82
2018-10-17T10:39:54.870Z,32.13
2018-10-17T10:42:23.449Z,38.67
2018-10-17T10:44:51.983Z,36.33
2018-10-17T10:47:20.657Z,31.85
2018-10-17T10:49:49.234Z,31.75
2018-10-17T10:52:17.800Z,25.95
2018-10-17T10:54:46.503Z,28.02
2018-10-17T10:57:15.150Z,31.77
2018-10-17T10:59:43.837Z,32.15
2018-10-17T11:02:12.443Z,24.20
2018-10-17T11:04:41.069Z,28.67
2018-10-17T11:07:09.598Z,29.85
2018-10-17T11:09:38.226Z,31.85
2018-10-17T11:12:07.015Z,30.20
2018-10-17T11:14:35.672Z,28.43
2018-10-17T11:17:04.380Z,29.27
2018-10-17T11:19:32.899Z,32.27
2018-10-17T11:22:01.599Z,40.93
2018-10-17T11:24:30.117Z,34.63
2018-10-17T11:26:58.760Z,38.50
2018-10-17T11:29:27.297Z,28.70
2018-10-17T11:31:55.963Z,30.90
2018-10-17T11:34:24.455Z,27.73
2018-10-17T11:36:53.037Z,33.10
2018-10-17T11:39:21.590Z,48.70
2018-10-17T11:41:50.135Z,34.10
2018-10-17T11:44:18.651Z,28.95
2018-10-17T11:46:47.254Z,26.90
2018-10-17T11:49:15.797Z,37.10
2018-10-17T11:51:44.359Z,25.10
2018-10-17T11:54:12.915Z,35.13
2018-10-17T11:56:41.469Z,30.32
2018-10-17T11:59:10.095Z,28.77
2018-10-17T12:01:38.605Z,30.92
2018-10-17T12:04:07.374Z,38.93
2018-10-17T12:06:35.837Z,39.40
2018-10-17T12:09:06.017Z,28.07
2018-10-17T12:11:34.562Z,33.87
2018-10-17T12:14:03.149Z,36.63
2018-10-17T12:16:31.717Z,46.20
2018-10-17T12:19:00.296Z,26.23
2018-10-17T12:21:28.930Z,30.10
2018-10-17T12:23:57.463Z,27.93
2018-10-17T12:26:26.015Z,35.90
2018-10-17T12:28:54.659Z,28.23
2018-10-17T12:31:23.145Z,33.20
2018-10-17T12:33:52.039Z,30.40
2018-10-17T12:36:20.647Z,36.87
2018-10-17T12:38:49.310Z,29.67
2018-10-17T12:41:17.865Z,34.70
2018-10-17T12:43:46.398Z,28.90
2018-10-17T12:46:14.977Z,28.63
2018-10-17T12:48:43.549Z,26.67
2018-10-17T12:51:12.175Z,25.93
2018-10-17T12:53:40.907Z,34.77
2018-10-17T12:56:09.396Z,22.70
2018-10-17T12:58:37.955Z,25.40
2018-10-17T13:01:06.644Z,32.80
2018-10-17T13:03:35.157Z,27.50
2018-10-17T13:06:03.757Z,31.63
2018-10-17T13:08:32.328Z,27.17
2018-10-17T13:11:00.933Z,25.97
2018-10-17T13:13:29.478Z,24.80
2018-10-17T13:15:58.025Z,32.20
2018-10-17T13:18:26.577Z,31.33
2018-10-17T13:20:55.109Z,31.63
2018-10-17T13:23:23.653Z,26.57
2018-10-17T13:25:52.203Z,32.97
2018-10-17T13:28:20.808Z,25.10
2018-10-17T13:30:49.346Z,30.97
2018-10-17T13:33:17.875Z,29.57
2018-10-17T13:35:46.406Z,37.70
2018-10-17T13:38:14.955Z,36.70
2018-10-17T13:40:43.534Z,27.93
2018-10-17T13:43:12.141Z,31.87
2018-10-17T13:45:40.728Z,27.60
2018-10-17T13:48:09.389Z,26.63
2018-10-17T13:50:37.951Z,35.83
2018-10-17T13:53:07.188Z,24.80
2018-10-17T13:55:35.761Z,28.93
2018-10-17T13:58:04.429Z,28.13
2018-10-17T14:00:33.203Z,31.53
2018-10-17T14:03:01.741Z,28.50
2018-10-17T14:05:30.296Z,30.20
2018-10-17T14:07:58.859Z,27.90
2018-10-17T14:10:27.427Z,27.80
2018-10-17T14:12:56.068Z,43.80
2018-10-17T14:15:24.601Z,31.53
2018-10-17T14:17:53.154Z,30.43
2018-10-17T14:20:21.736Z,26.37
2018-10-17T14:22:50.284Z,34.23
2018-10-17T14:25:18.838Z,27.50
2018-10-17T14:27:47.375Z,25.27
2018-10-17T14:30:16.076Z,26.17
2018-10-17T14:32:44.559Z,29.60
2018-10-17T14:35:13.221Z,40.00
2018-10-17T14:37:42.128Z,36.17
2018-10-17T14:40:10.587Z,29.50
2018-10-17T14:42:39.152Z,32.43
2018-10-17T14:45:09.312Z,23.90
2018-10-17T14:47:37.875Z,38.10
2018-10-17T14:50:06.588Z,25.20
2018-10-17T14:52:35.407Z,23.37
2018-10-17T14:55:04.050Z,25.93
2018-10-17T14:57:32.609Z,31.67
2018-10-17T15:00:01.149Z,26.07
2018-10-17T15:02:29.766Z,25.03
2018-10-17T15:04:58.369Z,25.03
2018-10-17T15:07:27.026Z,25.60
2018-10-17T15:09:55.928Z,43.33
2018-10-17T15:12:24.509Z,27.10
2018-10-17T15:14:53.131Z,25.20
2018-10-17T15:17:21.737Z,29.67
2018-10-17T15:19:50.264Z,25.00
2018-10-17T15:22:18.812Z,23.20
2018-10-17T15:24:47.557Z,32.27
2018-10-17T15:27:16.320Z,45.17
2018-10-17T15:29:45.143Z,46.17
2018-10-17T15:32:13.796Z,36.70
2018-10-17T15:34:42.857Z,39.23
2018-10-17T15:37:11.416Z,27.07
2018-10-17T15:39:40.207Z,29.87
2018-10-17T15:42:08.800Z,30.12
2018-10-17T15:44:37.369Z,30.53
2018-10-17T15:47:06.249Z,35.45
2018-10-17T15:49:34.769Z,35.30
2018-10-17T15:52:03.382Z,28.70
2018-10-17T15:54:31.918Z,29.87
2018-10-17T15:57:00.568Z,37.10
2018-10-17T15:59:29.546Z,33.88
2018-10-17T16:01:58.209Z,25.92
2018-10-17T16:04:26.755Z,41.33
2018-10-17T16:06:55.320Z,33.53
2018-10-17T16:09:23.867Z,37.85
2018-10-17T16:11:52.437Z,38.80
2018-10-17T16:14:21.082Z,44.18
2018-10-17T16:16:49.671Z,35.30
2018-10-17T16:19:18.249Z,39.38
2018-10-17T16:21:46.806Z,40.90
2018-10-17T16:24:15.381Z,32.45
2018-10-17T16:26:43.974Z,35.95
2018-10-17T16:29:12.769Z,36.80
2018-10-17T16:31:41.297Z,42.15
2018-10-17T16:34:09.846Z,35.88
2018-10-17T16:36:38.376Z,34.05
2018-10-17T16:39:09.585Z,34.33
2018-10-17T16:41:38.130Z,36.55
2018-10-17T16:44:07.104Z,31.50
2018-10-17T16:46:35.729Z,37.33
2018-10-17T16:49:04.360Z,39.40
2018-10-17T16:51:32.917Z,38.80
2018-10-17T16:54:01.543Z,41.88
2018-10-17T16:56:30.091Z,36.35
2018-10-17T16:58:58.647Z,39.35
2018-10-17T17:01:27.179Z,37.42
2018-10-17T17:03:55.696Z,32.10
2018-10-17T17:06:24.278Z,38.63
2018-10-17T17:08:52.830Z,40.35
2018-10-17T17:11:21.364Z,43.75
2018-10-17T17:13:49.901Z,46.75
2018-10-17T17:16:18.511Z,36.98
2018-10-17T17:18:47.071Z,41.35
2018-10-17T17:21:15.773Z,42.50
2018-10-17T17:23:44.259Z,36.33
2018-10-17T17:26:12.833Z,37.78
2018-10-17T17:28:41.370Z,47.38
2018-10-17T17:31:09.935Z,53.80
2018-10-17T17:33:38.477Z,47.00
2018-10-17T17:36:07.127Z,50.52
2018-10-17T17:38:35.651Z,39.05
2018-10-17T17:41:04.223Z,36.50
2018-10-17T17:43:32.781Z,41.15
2018-10-17T17:46:01.377Z,42.85
2018-10-17T17:48:29.948Z,51.90
2018-10-17T17:50:58.512Z,41.45
2018-10-17T17:53:27.080Z,36.75
2018-10-17T17:55:55.669Z,52.90
2018-10-17T17:58:24.314Z,41.75
2018-10-17T18:00:52.774Z,46.08
2018-10-17T18:03:21.331Z,43.33
2018-10-17T18:05:49.884Z,39.20
2018-10-17T18:08:18.625Z,41.13
2018-10-17T18:10:47.193Z,41.80
2018-10-17T18:13:15.794Z,40.65
2018-10-17T18:15:45.628Z,44.15
2018-10-17T18:18:14.841Z,41.92
2018-10-17T18:20:43.425Z,42.17
2018-10-17T18:23:12.244Z,45.50
2018-10-17T18:25:40.986Z,49.88
2018-10-17T18:28:09.674Z,43.95
2018-10-17T18:30:38.169Z,50.15
2018-10-17T18:33:06.718Z,51.40
2018-10-17T18:35:35.279Z,46.95
2018-10-17T18:38:03.849Z,50.17
2018-10-17T18:40:32.467Z,51.83
2018-10-17T18:43:01.090Z,47.95
2018-10-17T18:45:29.681Z,51.25
2018-10-17T18:47:58.288Z,43.52
2018-10-17T18:50:26.826Z,54.20
2018-10-17T18:52:55.406Z,46.00
2018-10-17T18:55:23.973Z,43.30
2018-10-17T18:57:52.546Z,54.98
2018-10-17T19:00:21.396Z,48.15
2018-10-17T19:02:49.931Z,45.20
2018-10-17T19:05:18.551Z,56.90
2018-10-17T19:07:47.081Z,49.48
2018-10-17T19:10:15.641Z,50.63
2018-10-17T19:12:44.179Z,52.30
2018-10-17T19:15:12.843Z,47.03
2018-10-17T19:17:41.331Z,44.35
2018-10-17T19:20:09.936Z,48.68
2018-10-17T19:22:38.502Z,53.00
2018-10-17T19:25:07.497Z,56.58
2018-10-17T19:27:36.068Z,54.10
2018-10-17T19:30:05.782Z,53.25
2018-10-17T19:32:34.016Z,51.77
2018-10-17T19:35:02.265Z,49.18
2018-10-17T19:37:30.522Z,51.60
2018-10-17T19:39:58.743Z,59.60
2018-10-17T19:42:26.960Z,51.50
2018-10-17T19:44:55.281Z,60.55
2018-10-17T19:47:23.515Z,48.60
2018-10-17T19:49:51.724Z,56.15
2018-10-17T19:52:19.940Z,52.23
2018-10-17T19:54:48.217Z,50.55
2018-10-17T19:57:16.543Z,52.43
2018-10-17T19:59:45.418Z,60.12
2018-10-17T20:02:13.733Z,48.10
2018-10-17T20:04:41.923Z,49.48
2018-10-17T20:07:10.155Z,47.27
2018-10-17T20:09:38.474Z,48.87
2018-10-17T20:12:06.764Z,56.90
2018-10-17T20:14:35.116Z,53.52
2018-10-17T20:17:03.344Z,49.33
2018-10-17T20:19:31.592Z,57.35
2018-10-17T20:21:59.816Z,61.63
2018-10-17T20:24:28.068Z,67.78
2018-10-17T20:26:56.328Z,60.88
2018-10-17T20:29:24.540Z,75.72
2018-10-17T20:31:52.764Z,55.35
2018-10-17T20:34:20.980Z,52.88
2018-10-17T20:36:49.371Z,58.95
2018-10-17T20:39:17.609Z,51.42
2018-10-17T20:41:45.845Z,58.00
2018-10-17T20:44:14.172Z,57.60
2018-10-17T20:46:42.406Z,58.83
2018-10-17T20:49:10.845Z,62.73
2018-10-17T20:51:39.071Z,59.00
2018-10-17T20:54:07.786Z,58.58
2018-10-17T20:56:36.030Z,54.20
2018-10-17T20:59:04.651Z,51.83
2018-10-17T21:01:32.896Z,61.40
2018-10-17T21:04:01.259Z,58.50
2018-10-17T21:06:29.475Z,52.43
2018-10-17T21:08:57.721Z,50.85
2018-10-17T21:11:26.003Z,53.60
2018-10-17T21:13:54.243Z,53.95
2018-10-17T21:16:22.461Z,58.38
2018-10-17T21:18:50.730Z,58.28
2018-10-17T21:21:18.876Z,53.40
2018-10-17T21:23:47.122Z,57.83
2018-10-17T21:26:15.410Z,53.92
2018-10-17T21:28:43.611Z,60.10
2018-10-17T21:31:11.808Z,51.20
2018-10-17T21:33:40.033Z,59.15
2018-10-17T21:36:08.306Z,53.28
2018-10-17T21:38:36.582Z,61.90
2018-10-17T21:41:04.792Z,48.10
2018-10-17T21:43:32.998Z,64.65
2018-10-17T21:46:01.228Z,52.03
2018-10-17T21:48:29.466Z,49.30
2018-10-17T21:50:57.732Z,57.13
2018-10-17T21:53:25.976Z,58.38
2018-10-17T21:55:54.283Z,53.10
2018-10-17T21:58:22.495Z,59.13
2018-10-17T22:00:50.757Z,62.83
2018-10-17T22:03:18.973Z,56.50
2018-10-17T22:05:47.189Z,63.02
2018-10-17T22:08:15.500Z,57.08
2018-10-17T22:10:43.728Z,53.25
2018-10-17T22:13:11.954Z,54.15
2018-10-17T22:15:40.172Z,71.47
2018-10-17T22:18:08.476Z,64.45
2018-10-17T22:20:36.717Z,51.92
2018-10-17T22:23:05.100Z,58.05
2018-10-17T22:25:33.346Z,54.05
2018-10-17T22:28:01.614Z,54.77
2018-10-17T22:30:29.838Z,58.40
2018-10-17T22:32:58.064Z,52.60
2018-10-17T22:35:26.365Z,52.93
2018-10-17T22:37:54.625Z,57.67
2018-10-17T22:40:22.836Z,46.33
2018-10-17T22:42:51.045Z,49.35
2018-10-17T22:45:19.278Z,54.85
2018-10-17T22:47:47.538Z,55.95
2018-10-17T22:50:15.853Z,55.05
2018-10-17T22:52:43.991Z,49.67
2018-10-17T22:55:12.285Z,48.08
2018-10-17T22:57:40.492Z,48.45
2018-10-17T23:00:09.332Z,52.43
2018-10-17T23:02:37.594Z,50.88
2018-10-17T23:05:05.963Z,50.30
2018-10-17T23:07:40.809Z,54.50
2018-10-17T23:10:09.054Z,62.00
2018-10-17T23:12:37.286Z,53.17
2018-10-17T23:15:08.107Z,54.40
2018-10-17T23:17:36.315Z,68.33
2018-10-17T23:20:05.061Z,66.17
2018-10-17T23:22:33.277Z,73.20
2018-10-17T23:25:01.489Z,65.85
2018-10-17T23:27:29.710Z,52.85
2018-10-17T23:29:57.918Z,57.00
2018-10-17T23:32:26.190Z,58.90
2018-10-17T23:34:54.480Z,57.70
2018-10-17T23:37:22.727Z,62.88
2018-10-17T23:39:50.953Z,65.00
2018-10-17T23:42:19.138Z,61.10
2018-10-17T23:44:47.367Z,65.80
2018-10-17T23:47:15.590Z,65.35
2018-10-17T23:49:43.804Z,66.72
2018-10-17T23:52:11.995Z,62.35
2018-10-17T23:54:40.217Z,66.37
2018-10-17T23:57:08.463Z,63.85
2018-10-17T23:59:36.698Z,64.00
